sensor_id;sensor_type;location;lat;lon;timestamp;P1;durP1;ratioP1;P2;durP2;ratioP2
40649;SDS011;26342;42.826;23.992;2022-12-05T00:00:48;2.05;;;1.95;;
40649;SDS011;26342;42.826;23.992;2022-12-05T00:03:14;2.03;;;1.27;;
40649;SDS011;26342;42.826;23.992;2022-12-05T00:05:40;1.67;;;1.55;;
40649;SDS011;26342;42.826;23.992;2022-12-05T00:08:06;2.22;;;1.42;;
40649;SDS011;26342;42.826;23.992;2022-12-05T00:10:34;6.00;;;2.83;;
40649;SDS011;26342;42.826;23.992;2022-12-05T00:13:00;2.55;;;2.17;;
40649;SDS011;26342;42.826;23.992;2022-12-05T00:15:26;3.55;;;2.00;;
40649;SDS011;26342;42.826;23.992;2022-12-05T00:17:51;2.85;;;1.63;;
40649;SDS011;26342;42.826;23.992;2022-12-05T00:20:17;3.35;;;2.50;;
40649;SDS011;26342;42.826;23.992;2022-12-05T00:22:42;1.23;;;1.13;;
40649;SDS011;26342;42.826;23.992;2022-12-05T00:25:08;4.38;;;2.90;;
40649;SDS011;26342;42.826;23.992;2022-12-05T00:27:34;3.92;;;2.90;;
40649;SDS011;26342;42.826;23.992;2022-12-05T00:30:00;2.05;;;1.40;;
40649;SDS011;26342;42.826;23.992;2022-12-05T00:32:29;3.15;;;2.28;;
40649;SDS011;26342;42.826;23.992;2022-12-05T00:34:55;2.03;;;1.80;;
40649;SDS011;26342;42.826;23.992;2022-12-05T00:37:20;4.40;;;1.75;;
40649;SDS011;26342;42.826;23.992;2022-12-05T00:39:46;2.00;;;1.73;;
40649;SDS011;26342;42.826;23.992;2022-12-05T00:42:11;1.30;;;1.20;;
40649;SDS011;26342;42.826;23.992;2022-12-05T00:44:36;2.00;;;1.42;;
40649;SDS011;26342;42.826;23.992;2022-12-05T00:47:02;4.07;;;2.30;;
40649;SDS011;26342;42.826;23.992;2022-12-05T00:49:27;0.95;;;0.77;;
40649;SDS011;26342;42.826;23.992;2022-12-05T00:51:53;5.10;;;2.13;;
40649;SDS011;26342;42.826;23.992;2022-12-05T00:54:18;2.10;;;1.67;;
40649;SDS011;26342;42.826;23.992;2022-12-05T00:56:44;0.70;;;0.70;;
40649;SDS011;26342;42.826;23.992;2022-12-05T00:59:12;1.80;;;1.70;;
40649;SDS011;26342;42.826;23.992;2022-12-05T01:01:40;2.42;;;2.17;;
40649;SDS011;26342;42.826;23.992;2022-12-05T01:04:09;1.42;;;0.95;;
40649;SDS011;26342;42.826;23.992;2022-12-05T01:06:40;0.57;;;0.57;;
40649;SDS011;26342;42.826;23.992;2022-12-05T01:09:06;1.83;;;1.35;;
40649;SDS011;26342;42.826;23.992;2022-12-05T01:11:32;3.83;;;2.03;;
40649;SDS011;26342;42.826;23.992;2022-12-05T01:13:58;3.85;;;2.53;;
40649;SDS011;26342;42.826;23.992;2022-12-05T01:16:28;5.57;;;2.92;;
40649;SDS011;26342;42.826;23.992;2022-12-05T01:18:57;8.15;;;4.00;;
40649;SDS011;26342;42.826;23.992;2022-12-05T01:21:23;2.70;;;2.50;;
40649;SDS011;26342;42.826;23.992;2022-12-05T01:23:49;3.67;;;2.38;;
40649;SDS011;26342;42.826;23.992;2022-12-05T01:26:16;7.38;;;2.97;;
40649;SDS011;26342;42.826;23.992;2022-12-05T01:28:43;4.45;;;3.28;;
40649;SDS011;26342;42.826;23.992;2022-12-05T01:33:49;2.20;;;2.05;;
40649;SDS011;26342;42.826;23.992;2022-12-05T01:36:16;5.13;;;3.53;;
40649;SDS011;26342;42.826;23.992;2022-12-05T01:38:42;2.47;;;2.28;;
40649;SDS011;26342;42.826;23.992;2022-12-05T01:41:09;2.90;;;2.63;;
40649;SDS011;26342;42.826;23.992;2022-12-05T01:46:24;6.32;;;3.15;;
40649;SDS011;26342;42.826;23.992;2022-12-05T01:48:51;2.20;;;2.08;;
40649;SDS011;26342;42.826;23.992;2022-12-05T01:51:19;9.45;;;3.58;;
40649;SDS011;26342;42.826;23.992;2022-12-05T01:53:45;9.43;;;3.40;;
40649;SDS011;26342;42.826;23.992;2022-12-05T01:56:11;7.82;;;3.30;;
40649;SDS011;26342;42.826;23.992;2022-12-05T01:58:37;2.42;;;2.25;;
40649;SDS011;26342;42.826;23.992;2022-12-05T02:01:06;2.45;;;2.00;;
40649;SDS011;26342;42.826;23.992;2022-12-05T02:03:31;4.45;;;3.85;;
40649;SDS011;26342;42.826;23.992;2022-12-05T02:05:57;9.23;;;2.20;;
40649;SDS011;26342;42.826;23.992;2022-12-05T02:08:24;6.85;;;2.90;;
40649;SDS011;26342;42.826;23.992;2022-12-05T02:10:53;12.60;;;4.25;;
40649;SDS011;26342;42.826;23.992;2022-12-05T02:13:30;3.78;;;1.83;;
40649;SDS011;26342;42.826;23.992;2022-12-05T02:24:23;10.43;;;4.32;;
40649;SDS011;26342;42.826;23.992;2022-12-05T02:40:24;14.70;;;7.53;;
40649;SDS011;26342;42.826;23.992;2022-12-05T02:45:38;3.80;;;2.85;;
40649;SDS011;26342;42.826;23.992;2022-12-05T02:48:07;4.55;;;2.50;;
40649;SDS011;26342;42.826;23.992;2022-12-05T02:50:35;4.82;;;4.32;;
40649;SDS011;26342;42.826;23.992;2022-12-05T02:53:04;8.85;;;4.22;;
40649;SDS011;26342;42.826;23.992;2022-12-05T02:55:33;7.60;;;4.25;;
40649;SDS011;26342;42.826;23.992;2022-12-05T02:58:00;4.75;;;2.78;;
40649;SDS011;26342;42.826;23.992;2022-12-05T03:00:29;3.65;;;3.42;;
40649;SDS011;26342;42.826;23.992;2022-12-05T03:02:55;4.72;;;3.13;;
40649;SDS011;26342;42.826;23.992;2022-12-05T03:05:40;5.88;;;5.05;;
40649;SDS011;26342;42.826;23.992;2022-12-05T03:08:13;3.67;;;2.67;;
40649;SDS011;26342;42.826;23.992;2022-12-05T03:10:44;4.40;;;3.45;;
40649;SDS011;26342;42.826;23.992;2022-12-05T03:13:15;9.30;;;4.40;;
40649;SDS011;26342;42.826;23.992;2022-12-05T03:16:01;4.57;;;3.03;;
40649;SDS011;26342;42.826;23.992;2022-12-05T03:18:32;9.82;;;2.38;;
40649;SDS011;26342;42.826;23.992;2022-12-05T03:21:04;5.72;;;2.38;;
40649;SDS011;26342;42.826;23.992;2022-12-05T03:23:41;16.73;;;6.85;;
40649;SDS011;26342;42.826;23.992;2022-12-05T03:31:44;2.72;;;2.47;;
40649;SDS011;26342;42.826;23.992;2022-12-05T03:37:27;4.75;;;3.75;;
40649;SDS011;26342;42.826;23.992;2022-12-05T03:40:00;10.25;;;2.75;;
40649;SDS011;26342;42.826;23.992;2022-12-05T03:42:32;2.03;;;1.83;;
40649;SDS011;26342;42.826;23.992;2022-12-05T03:45:09;6.53;;;3.20;;
40649;SDS011;26342;42.826;23.992;2022-12-05T03:50:13;10.13;;;3.55;;
40649;SDS011;26342;42.826;23.992;2022-12-05T03:52:46;4.40;;;2.30;;
40649;SDS011;26342;42.826;23.992;2022-12-05T03:55:17;11.18;;;4.10;;
40649;SDS011;26342;42.826;23.992;2022-12-05T03:57:57;7.57;;;4.10;;
40649;SDS011;26342;42.826;23.992;2022-12-05T04:00:26;8.05;;;4.03;;
40649;SDS011;26342;42.826;23.992;2022-12-05T04:05:31;4.10;;;2.83;;
40649;SDS011;26342;42.826;23.992;2022-12-05T04:08:10;4.65;;;1.65;;
40649;SDS011;26342;42.826;23.992;2022-12-05T04:10:47;4.03;;;1.33;;
40649;SDS011;26342;42.826;23.992;2022-12-05T04:13:17;1.27;;;1.08;;
40649;SDS011;26342;42.826;23.992;2022-12-05T04:15:50;2.42;;;2.00;;
40649;SDS011;26342;42.826;23.992;2022-12-05T04:18:40;5.18;;;2.30;;
40649;SDS011;26342;42.826;23.992;2022-12-05T04:21:15;5.78;;;3.33;;
40649;SDS011;26342;42.826;23.992;2022-12-05T04:24:02;1.75;;;1.65;;
40649;SDS011;26342;42.826;23.992;2022-12-05T04:26:51;1.88;;;1.70;;
40649;SDS011;26342;42.826;23.992;2022-12-05T04:29:25;3.85;;;1.48;;
40649;SDS011;26342;42.826;23.992;2022-12-05T04:31:57;4.60;;;2.22;;
40649;SDS011;26342;42.826;23.992;2022-12-05T04:34:25;3.00;;;1.65;;
40649;SDS011;26342;42.826;23.992;2022-12-05T04:37:01;5.00;;;2.70;;
40649;SDS011;26342;42.826;23.992;2022-12-05T04:42:09;3.08;;;2.78;;
40649;SDS011;26342;42.826;23.992;2022-12-05T04:44:41;4.25;;;1.20;;
40649;SDS011;26342;42.826;23.992;2022-12-05T04:47:11;1.55;;;1.45;;
40649;SDS011;26342;42.826;23.992;2022-12-05T04:49:39;3.78;;;1.75;;
40649;SDS011;26342;42.826;23.992;2022-12-05T04:52:07;2.55;;;0.40;;
40649;SDS011;26342;42.826;23.992;2022-12-05T04:54:39;0.50;;;0.50;;
40649;SDS011;26342;42.826;23.992;2022-12-05T04:57:15;1.63;;;1.52;;
40649;SDS011;26342;42.826;23.992;2022-12-05T05:00:00;0.95;;;0.80;;
40649;SDS011;26342;42.826;23.992;2022-12-05T05:02:47;1.40;;;1.30;;
40649;SDS011;26342;42.826;23.992;2022-12-05T05:05:14;2.75;;;1.98;;
40649;SDS011;26342;42.826;23.992;2022-12-05T05:07:46;4.13;;;2.95;;
40649;SDS011;26342;42.826;23.992;2022-12-05T05:10:20;5.68;;;3.05;;
40649;SDS011;26342;42.826;23.992;2022-12-05T05:12:51;4.50;;;3.38;;
40649;SDS011;26342;42.826;23.992;2022-12-05T05:15:16;4.70;;;4.22;;
40649;SDS011;26342;42.826;23.992;2022-12-05T05:17:42;18.02;;;5.40;;
40649;SDS011;26342;42.826;23.992;2022-12-05T05:20:07;6.95;;;3.78;;
40649;SDS011;26342;42.826;23.992;2022-12-05T05:22:49;5.50;;;4.70;;
40649;SDS011;26342;42.826;23.992;2022-12-05T05:25:16;4.20;;;3.45;;
40649;SDS011;26342;42.826;23.992;2022-12-05T05:27:42;4.50;;;3.00;;
40649;SDS011;26342;42.826;23.992;2022-12-05T05:30:07;8.40;;;3.13;;
40649;SDS011;26342;42.826;23.992;2022-12-05T05:32:33;3.33;;;1.95;;
40649;SDS011;26342;42.826;23.992;2022-12-05T05:34:59;4.72;;;3.50;;
40649;SDS011;26342;42.826;23.992;2022-12-05T05:37:24;12.10;;;6.45;;
40649;SDS011;26342;42.826;23.992;2022-12-05T05:39:50;14.45;;;7.85;;
40649;SDS011;26342;42.826;23.992;2022-12-05T05:42:15;8.13;;;6.05;;
40649;SDS011;26342;42.826;23.992;2022-12-05T05:44:40;4.82;;;1.42;;
40649;SDS011;26342;42.826;23.992;2022-12-05T05:47:06;3.80;;;2.25;;
40649;SDS011;26342;42.826;23.992;2022-12-05T05:49:31;4.18;;;3.33;;
40649;SDS011;26342;42.826;23.992;2022-12-05T05:51:57;9.45;;;4.93;;
40649;SDS011;26342;42.826;23.992;2022-12-05T05:54:22;9.85;;;5.07;;
40649;SDS011;26342;42.826;23.992;2022-12-05T05:56:47;6.90;;;4.88;;
40649;SDS011;26342;42.826;23.992;2022-12-05T05:59:13;5.65;;;2.47;;
40649;SDS011;26342;42.826;23.992;2022-12-05T06:01:38;5.28;;;3.97;;
40649;SDS011;26342;42.826;23.992;2022-12-05T06:04:04;4.30;;;2.45;;
40649;SDS011;26342;42.826;23.992;2022-12-05T06:06:29;2.45;;;2.05;;
40649;SDS011;26342;42.826;23.992;2022-12-05T06:08:54;2.75;;;1.33;;
40649;SDS011;26342;42.826;23.992;2022-12-05T06:11:22;4.13;;;3.00;;
40649;SDS011;26342;42.826;23.992;2022-12-05T06:13:49;1.38;;;1.23;;
40649;SDS011;26342;42.826;23.992;2022-12-05T06:16:16;1.92;;;1.55;;
40649;SDS011;26342;42.826;23.992;2022-12-05T06:18:42;4.43;;;2.55;;
40649;SDS011;26342;42.826;23.992;2022-12-05T06:21:08;3.05;;;2.25;;
40649;SDS011;26342;42.826;23.992;2022-12-05T06:23:35;3.70;;;2.60;;
40649;SDS011;26342;42.826;23.992;2022-12-05T06:26:02;1.70;;;1.58;;
40649;SDS011;26342;42.826;23.992;2022-12-05T06:28:28;2.88;;;2.03;;
40649;SDS011;26342;42.826;23.992;2022-12-05T06:30:54;11.70;;;4.70;;
40649;SDS011;26342;42.826;23.992;2022-12-05T06:33:20;13.65;;;7.28;;
40649;SDS011;26342;42.826;23.992;2022-12-05T06:35:45;17.50;;;6.70;;
40649;SDS011;26342;42.826;23.992;2022-12-05T06:38:11;12.50;;;7.95;;
40649;SDS011;26342;42.826;23.992;2022-12-05T06:40:43;10.07;;;6.80;;
40649;SDS011;26342;42.826;23.992;2022-12-05T06:43:09;18.35;;;5.60;;
40649;SDS011;26342;42.826;23.992;2022-12-05T06:45:38;19.05;;;7.22;;
40649;SDS011;26342;42.826;23.992;2022-12-05T06:48:05;16.02;;;8.20;;
40649;SDS011;26342;42.826;23.992;2022-12-05T06:50:30;25.77;;;8.95;;
40649;SDS011;26342;42.826;23.992;2022-12-05T06:52:56;14.52;;;7.28;;
40649;SDS011;26342;42.826;23.992;2022-12-05T06:55:21;7.05;;;4.65;;
40649;SDS011;26342;42.826;23.992;2022-12-05T06:57:46;5.65;;;3.50;;
40649;SDS011;26342;42.826;23.992;2022-12-05T07:00:12;12.55;;;7.20;;
40649;SDS011;26342;42.826;23.992;2022-12-05T07:02:56;11.07;;;6.20;;
40649;SDS011;26342;42.826;23.992;2022-12-05T07:05:22;7.35;;;5.45;;
40649;SDS011;26342;42.826;23.992;2022-12-05T07:07:47;5.95;;;4.63;;
40649;SDS011;26342;42.826;23.992;2022-12-05T07:10:14;7.93;;;4.00;;
40649;SDS011;26342;42.826;23.992;2022-12-05T07:12:39;8.32;;;5.75;;
40649;SDS011;26342;42.826;23.992;2022-12-05T07:15:05;6.93;;;5.03;;
40649;SDS011;26342;42.826;23.992;2022-12-05T07:17:33;6.60;;;3.92;;
40649;SDS011;26342;42.826;23.992;2022-12-05T07:20:00;7.35;;;5.57;;
40649;SDS011;26342;42.826;23.992;2022-12-05T07:22:25;9.23;;;6.97;;
40649;SDS011;26342;42.826;23.992;2022-12-05T07:24:51;6.05;;;4.68;;
40649;SDS011;26342;42.826;23.992;2022-12-05T07:27:17;12.40;;;7.53;;
40649;SDS011;26342;42.826;23.992;2022-12-05T07:29:42;17.60;;;6.80;;
40649;SDS011;26342;42.826;23.992;2022-12-05T07:32:08;8.25;;;4.78;;
40649;SDS011;26342;42.826;23.992;2022-12-05T07:34:33;8.20;;;5.35;;
40649;SDS011;26342;42.826;23.992;2022-12-05T07:36:59;9.30;;;6.35;;
40649;SDS011;26342;42.826;23.992;2022-12-05T07:39:24;10.93;;;5.90;;
40649;SDS011;26342;42.826;23.992;2022-12-05T07:41:50;8.52;;;5.00;;
40649;SDS011;26342;42.826;23.992;2022-12-05T07:44:15;16.27;;;6.32;;
40649;SDS011;26342;42.826;23.992;2022-12-05T07:46:41;14.13;;;8.05;;
40649;SDS011;26342;42.826;23.992;2022-12-05T07:49:06;14.23;;;5.78;;
40649;SDS011;26342;42.826;23.992;2022-12-05T07:51:32;8.68;;;6.35;;
40649;SDS011;26342;42.826;23.992;2022-12-05T07:53:58;8.63;;;5.90;;
40649;SDS011;26342;42.826;23.992;2022-12-05T07:56:24;14.75;;;7.13;;
40649;SDS011;26342;42.826;23.992;2022-12-05T07:58:49;20.90;;;7.57;;
40649;SDS011;26342;42.826;23.992;2022-12-05T08:03:41;16.40;;;7.35;;
40649;SDS011;26342;42.826;23.992;2022-12-05T08:06:09;13.35;;;8.02;;
40649;SDS011;26342;42.826;23.992;2022-12-05T08:08:36;9.10;;;5.00;;
40649;SDS011;26342;42.826;23.992;2022-12-05T08:11:05;7.47;;;4.60;;
40649;SDS011;26342;42.826;23.992;2022-12-05T08:13:38;9.55;;;5.50;;
40649;SDS011;26342;42.826;23.992;2022-12-05T08:16:08;13.95;;;6.85;;
40649;SDS011;26342;42.826;23.992;2022-12-05T08:18:36;7.85;;;4.25;;
40649;SDS011;26342;42.826;23.992;2022-12-05T08:21:02;9.90;;;4.03;;
40649;SDS011;26342;42.826;23.992;2022-12-05T08:23:29;9.00;;;5.65;;
40649;SDS011;26342;42.826;23.992;2022-12-05T08:25:55;3.17;;;2.28;;
40649;SDS011;26342;42.826;23.992;2022-12-05T08:28:25;5.45;;;1.95;;
40649;SDS011;26342;42.826;23.992;2022-12-05T08:30:51;3.20;;;1.40;;
40649;SDS011;26342;42.826;23.992;2022-12-05T08:33:16;5.93;;;1.63;;
40649;SDS011;26342;42.826;23.992;2022-12-05T08:35:41;3.53;;;2.15;;
40649;SDS011;26342;42.826;23.992;2022-12-05T08:38:07;3.38;;;2.38;;
40649;SDS011;26342;42.826;23.992;2022-12-05T08:40:32;5.13;;;2.80;;
40649;SDS011;26342;42.826;23.992;2022-12-05T08:42:58;9.48;;;3.72;;
40649;SDS011;26342;42.826;23.992;2022-12-05T08:45:23;6.20;;;4.00;;
40649;SDS011;26342;42.826;23.992;2022-12-05T08:47:48;2.78;;;1.80;;
40649;SDS011;26342;42.826;23.992;2022-12-05T08:50:14;1.95;;;1.83;;
40649;SDS011;26342;42.826;23.992;2022-12-05T08:52:39;2.95;;;2.67;;
40649;SDS011;26342;42.826;23.992;2022-12-05T08:55:05;6.15;;;4.10;;
40649;SDS011;26342;42.826;23.992;2022-12-05T08:57:30;29.10;;;4.25;;
40649;SDS011;26342;42.826;23.992;2022-12-05T08:59:56;6.53;;;5.63;;
40649;SDS011;26342;42.826;23.992;2022-12-05T09:02:22;7.97;;;4.97;;
40649;SDS011;26342;42.826;23.992;2022-12-05T09:04:51;8.52;;;4.63;;
40649;SDS011;26342;42.826;23.992;2022-12-05T09:07:16;21.80;;;5.97;;
40649;SDS011;26342;42.826;23.992;2022-12-05T09:09:42;3.38;;;2.92;;
40649;SDS011;26342;42.826;23.992;2022-12-05T09:12:07;9.38;;;5.47;;
40649;SDS011;26342;42.826;23.992;2022-12-05T09:14:33;20.00;;;5.38;;
40649;SDS011;26342;42.826;23.992;2022-12-05T09:16:58;5.88;;;4.60;;
40649;SDS011;26342;42.826;23.992;2022-12-05T09:19:24;5.15;;;4.00;;
40649;SDS011;26342;42.826;23.992;2022-12-05T09:21:51;6.18;;;5.00;;
40649;SDS011;26342;42.826;23.992;2022-12-05T09:24:17;11.77;;;6.07;;
40649;SDS011;26342;42.826;23.992;2022-12-05T09:26:43;9.75;;;3.60;;
40649;SDS011;26342;42.826;23.992;2022-12-05T09:29:09;9.32;;;5.70;;
40649;SDS011;26342;42.826;23.992;2022-12-05T09:31:37;7.82;;;2.78;;
40649;SDS011;26342;42.826;23.992;2022-12-05T09:34:03;1.98;;;1.77;;
40649;SDS011;26342;42.826;23.992;2022-12-05T09:36:29;2.60;;;2.35;;
40649;SDS011;26342;42.826;23.992;2022-12-05T09:38:58;4.95;;;2.85;;
40649;SDS011;26342;42.826;23.992;2022-12-05T09:44:37;6.13;;;3.70;;
40649;SDS011;26342;42.826;23.992;2022-12-05T09:49:49;3.15;;;2.67;;
40649;SDS011;26342;42.826;23.992;2022-12-05T09:54:53;15.38;;;2.05;;
40649;SDS011;26342;42.826;23.992;2022-12-05T09:57:23;2.65;;;1.60;;
40649;SDS011;26342;42.826;23.992;2022-12-05T09:59:56;1.42;;;1.35;;
40649;SDS011;26342;42.826;23.992;2022-12-05T10:02:42;2.53;;;1.25;;
40649;SDS011;26342;42.826;23.992;2022-12-05T10:08:13;3.70;;;1.42;;
40649;SDS011;26342;42.826;23.992;2022-12-05T10:16:04;1.17;;;1.05;;
40649;SDS011;26342;42.826;23.992;2022-12-05T10:21:22;2.67;;;1.73;;
40649;SDS011;26342;42.826;23.992;2022-12-05T10:26:28;2.75;;;1.92;;
40649;SDS011;26342;42.826;23.992;2022-12-05T10:31:41;2.50;;;1.58;;
40649;SDS011;26342;42.826;23.992;2022-12-05T10:36:38;7.60;;;3.72;;
40649;SDS011;26342;42.826;23.992;2022-12-05T10:39:08;3.00;;;2.08;;
40649;SDS011;26342;42.826;23.992;2022-12-05T10:41:34;2.80;;;2.55;;
40649;SDS011;26342;42.826;23.992;2022-12-05T10:43:59;3.83;;;2.65;;
40649;SDS011;26342;42.826;23.992;2022-12-05T10:46:25;4.10;;;3.70;;
40649;SDS011;26342;42.826;23.992;2022-12-05T10:48:50;5.50;;;2.83;;
40649;SDS011;26342;42.826;23.992;2022-12-05T10:51:16;16.58;;;2.92;;
40649;SDS011;26342;42.826;23.992;2022-12-05T10:53:45;9.38;;;3.25;;
40649;SDS011;26342;42.826;23.992;2022-12-05T10:59:08;9.32;;;2.58;;
40649;SDS011;26342;42.826;23.992;2022-12-05T11:01:36;4.13;;;3.60;;
40649;SDS011;26342;42.826;23.992;2022-12-05T11:04:20;9.77;;;4.55;;
40649;SDS011;26342;42.826;23.992;2022-12-05T11:09:33;4.45;;;2.28;;
40649;SDS011;26342;42.826;23.992;2022-12-05T11:12:15;3.35;;;2.25;;
40649;SDS011;26342;42.826;23.992;2022-12-05T11:14:52;1.83;;;1.73;;
40649;SDS011;26342;42.826;23.992;2022-12-05T11:17:24;5.00;;;3.25;;
40649;SDS011;26342;42.826;23.992;2022-12-05T11:19:54;4.18;;;2.70;;
40649;SDS011;26342;42.826;23.992;2022-12-05T11:22:19;7.10;;;2.22;;
40649;SDS011;26342;42.826;23.992;2022-12-05T11:24:58;2.72;;;2.10;;
40649;SDS011;26342;42.826;23.992;2022-12-05T11:27:26;2.65;;;1.95;;
40649;SDS011;26342;42.826;23.992;2022-12-05T11:32:31;4.72;;;3.00;;
40649;SDS011;26342;42.826;23.992;2022-12-05T11:35:00;3.65;;;2.42;;
40649;SDS011;26342;42.826;23.992;2022-12-05T11:37:28;12.82;;;3.08;;
40649;SDS011;26342;42.826;23.992;2022-12-05T11:40:00;3.15;;;1.70;;
40649;SDS011;26342;42.826;23.992;2022-12-05T11:42:36;2.58;;;2.28;;
40649;SDS011;26342;42.826;23.992;2022-12-05T11:58:19;1.83;;;1.13;;
40649;SDS011;26342;42.826;23.992;2022-12-05T12:06:51;1.30;;;1.25;;
40649;SDS011;26342;42.826;23.992;2022-12-05T12:12:29;2.10;;;1.02;;
40649;SDS011;26342;42.826;23.992;2022-12-05T12:20:40;1.20;;;1.10;;
40649;SDS011;26342;42.826;23.992;2022-12-05T12:26:14;1.02;;;1.02;;
40649;SDS011;26342;42.826;23.992;2022-12-05T12:29:11;2.17;;;1.90;;
40649;SDS011;26342;42.826;23.992;2022-12-05T12:40:17;4.57;;;2.42;;
40649;SDS011;26342;42.826;23.992;2022-12-05T12:51:21;1.52;;;1.27;;
40649;SDS011;26342;42.826;23.992;2022-12-05T12:56:36;3.03;;;2.03;;
40649;SDS011;26342;42.826;23.992;2022-12-05T13:02:30;6.30;;;4.43;;
40649;SDS011;26342;42.826;23.992;2022-12-05T13:10:44;2.28;;;1.98;;
40649;SDS011;26342;42.826;23.992;2022-12-05T13:13:13;8.65;;;4.55;;
40649;SDS011;26342;42.826;23.992;2022-12-05T13:15:43;4.05;;;3.65;;
40649;SDS011;26342;42.826;23.992;2022-12-05T13:18:30;2.75;;;2.35;;
40649;SDS011;26342;42.826;23.992;2022-12-05T13:20:56;3.35;;;2.50;;
40649;SDS011;26342;42.826;23.992;2022-12-05T13:23:24;3.90;;;3.00;;
40649;SDS011;26342;42.826;23.992;2022-12-05T13:25:53;2.67;;;2.15;;
40649;SDS011;26342;42.826;23.992;2022-12-05T13:30:55;13.45;;;7.88;;
40649;SDS011;26342;42.826;23.992;2022-12-05T13:33:25;6.72;;;3.67;;
40649;SDS011;26342;42.826;23.992;2022-12-05T13:35:55;8.88;;;5.88;;
40649;SDS011;26342;42.826;23.992;2022-12-05T13:38:46;6.32;;;3.22;;
40649;SDS011;26342;42.826;23.992;2022-12-05T13:41:38;12.82;;;5.63;;
40649;SDS011;26342;42.826;23.992;2022-12-05T13:44:29;5.25;;;4.55;;
40649;SDS011;26342;42.826;23.992;2022-12-05T13:46:59;7.40;;;4.97;;
40649;SDS011;26342;42.826;23.992;2022-12-05T13:52:09;5.55;;;3.75;;
40649;SDS011;26342;42.826;23.992;2022-12-05T13:54:44;4.72;;;2.47;;
40649;SDS011;26342;42.826;23.992;2022-12-05T14:07:42;3.83;;;1.52;;
40649;SDS011;26342;42.826;23.992;2022-12-05T14:34:26;2.95;;;1.83;;
40649;SDS011;26342;42.826;23.992;2022-12-05T14:41:59;4.20;;;2.58;;
40649;SDS011;26342;42.826;23.992;2022-12-05T14:44:27;5.40;;;2.92;;
40649;SDS011;26342;42.826;23.992;2022-12-05T14:46:59;6.57;;;2.60;;
40649;SDS011;26342;42.826;23.992;2022-12-05T14:49:33;3.83;;;3.00;;
40649;SDS011;26342;42.826;23.992;2022-12-05T14:51:59;2.38;;;2.15;;
40649;SDS011;26342;42.826;23.992;2022-12-05T14:57:13;2.53;;;1.75;;
40649;SDS011;26342;42.826;23.992;2022-12-05T14:59:44;7.63;;;4.33;;
40649;SDS011;26342;42.826;23.992;2022-12-05T15:12:59;4.40;;;2.88;;
40649;SDS011;26342;42.826;23.992;2022-12-05T15:23:57;8.60;;;3.38;;
40649;SDS011;26342;42.826;23.992;2022-12-05T15:26:25;13.52;;;5.35;;
40649;SDS011;26342;42.826;23.992;2022-12-05T15:31:50;5.43;;;3.45;;
40649;SDS011;26342;42.826;23.992;2022-12-05T15:34:45;5.13;;;4.10;;
40649;SDS011;26342;42.826;23.992;2022-12-05T15:37:18;4.82;;;3.97;;
40649;SDS011;26342;42.826;23.992;2022-12-05T15:42:43;10.05;;;5.85;;
40649;SDS011;26342;42.826;23.992;2022-12-05T15:45:14;9.95;;;5.57;;
40649;SDS011;26342;42.826;23.992;2022-12-05T15:47:45;7.63;;;4.65;;
40649;SDS011;26342;42.826;23.992;2022-12-05T15:50:23;6.95;;;4.07;;
40649;SDS011;26342;42.826;23.992;2022-12-05T15:58:53;4.35;;;2.55;;
40649;SDS011;26342;42.826;23.992;2022-12-05T16:01:27;3.58;;;2.72;;
40649;SDS011;26342;42.826;23.992;2022-12-05T16:03:58;5.88;;;2.15;;
40649;SDS011;26342;42.826;23.992;2022-12-05T16:06:31;3.33;;;1.23;;
40649;SDS011;26342;42.826;23.992;2022-12-05T16:09:06;0.80;;;0.73;;
40649;SDS011;26342;42.826;23.992;2022-12-05T16:11:36;3.45;;;0.95;;
40649;SDS011;26342;42.826;23.992;2022-12-05T16:14:02;1.33;;;1.23;;
40649;SDS011;26342;42.826;23.992;2022-12-05T16:16:34;1.35;;;1.25;;
40649;SDS011;26342;42.826;23.992;2022-12-05T16:19:11;5.60;;;2.13;;
40649;SDS011;26342;42.826;23.992;2022-12-05T16:21:46;3.30;;;2.67;;
40649;SDS011;26342;42.826;23.992;2022-12-05T16:24:29;3.15;;;2.13;;
40649;SDS011;26342;42.826;23.992;2022-12-05T16:29:32;2.05;;;1.80;;
40649;SDS011;26342;42.826;23.992;2022-12-05T16:32:02;3.15;;;1.85;;
40649;SDS011;26342;42.826;23.992;2022-12-05T16:34:36;0.98;;;0.93;;
40649;SDS011;26342;42.826;23.992;2022-12-05T16:37:02;3.60;;;1.67;;
40649;SDS011;26342;42.826;23.992;2022-12-05T16:39:27;5.63;;;1.95;;
40649;SDS011;26342;42.826;23.992;2022-12-05T16:41:53;1.80;;;1.70;;
40649;SDS011;26342;42.826;23.992;2022-12-05T16:47:02;2.05;;;1.95;;
40649;SDS011;26342;42.826;23.992;2022-12-05T16:49:32;2.47;;;1.35;;
40649;SDS011;26342;42.826;23.992;2022-12-05T16:54:24;4.25;;;2.58;;
40649;SDS011;26342;42.826;23.992;2022-12-05T16:56:50;1.60;;;1.48;;
40649;SDS011;26342;42.826;23.992;2022-12-05T16:59:20;1.92;;;1.70;;
40649;SDS011;26342;42.826;23.992;2022-12-05T17:01:50;1.85;;;1.52;;
40649;SDS011;26342;42.826;23.992;2022-12-05T17:04:15;5.53;;;3.33;;
40649;SDS011;26342;42.826;23.992;2022-12-05T17:06:40;4.78;;;3.40;;
40649;SDS011;26342;42.826;23.992;2022-12-05T17:09:06;2.35;;;1.75;;
40649;SDS011;26342;42.826;23.992;2022-12-05T17:11:32;5.05;;;4.22;;
40649;SDS011;26342;42.826;23.992;2022-12-05T17:14:00;4.05;;;3.60;;
40649;SDS011;26342;42.826;23.992;2022-12-05T17:16:27;6.25;;;3.42;;
40649;SDS011;26342;42.826;23.992;2022-12-05T17:18:53;5.63;;;2.35;;
40649;SDS011;26342;42.826;23.992;2022-12-05T17:21:19;9.77;;;3.97;;
40649;SDS011;26342;42.826;23.992;2022-12-05T17:23:47;5.28;;;4.10;;
40649;SDS011;26342;42.826;23.992;2022-12-05T17:26:13;5.55;;;3.45;;
40649;SDS011;26342;42.826;23.992;2022-12-05T17:28:43;11.00;;;3.55;;
40649;SDS011;26342;42.826;23.992;2022-12-05T17:31:11;11.38;;;5.57;;
40649;SDS011;26342;42.826;23.992;2022-12-05T17:33:40;11.65;;;5.28;;
40649;SDS011;26342;42.826;23.992;2022-12-05T17:36:06;3.88;;;3.45;;
40649;SDS011;26342;42.826;23.992;2022-12-05T17:38:32;5.60;;;3.95;;
40649;SDS011;26342;42.826;23.992;2022-12-05T17:40:57;4.80;;;3.47;;
40649;SDS011;26342;42.826;23.992;2022-12-05T17:43:22;5.25;;;1.55;;
40649;SDS011;26342;42.826;23.992;2022-12-05T17:45:48;8.48;;;2.72;;
40649;SDS011;26342;42.826;23.992;2022-12-05T17:48:14;2.40;;;2.08;;
40649;SDS011;26342;42.826;23.992;2022-12-05T17:50:44;3.15;;;2.85;;
40649;SDS011;26342;42.826;23.992;2022-12-05T17:53:14;6.70;;;4.60;;
40649;SDS011;26342;42.826;23.992;2022-12-05T17:55:42;8.05;;;5.45;;
40649;SDS011;26342;42.826;23.992;2022-12-05T17:58:08;8.13;;;3.65;;
40649;SDS011;26342;42.826;23.992;2022-12-05T18:00:34;3.50;;;2.22;;
40649;SDS011;26342;42.826;23.992;2022-12-05T18:03:01;3.08;;;2.70;;
40649;SDS011;26342;42.826;23.992;2022-12-05T18:05:27;4.43;;;3.10;;
40649;SDS011;26342;42.826;23.992;2022-12-05T18:07:52;9.05;;;4.07;;
40649;SDS011;26342;42.826;23.992;2022-12-05T18:10:19;3.58;;;2.92;;
40649;SDS011;26342;42.826;23.992;2022-12-05T18:12:46;4.93;;;3.38;;
40649;SDS011;26342;42.826;23.992;2022-12-05T18:15:12;11.27;;;5.22;;
40649;SDS011;26342;42.826;23.992;2022-12-05T18:17:39;6.43;;;5.03;;
40649;SDS011;26342;42.826;23.992;2022-12-05T18:20:06;6.65;;;3.78;;
40649;SDS011;26342;42.826;23.992;2022-12-05T18:22:33;5.82;;;4.28;;
40649;SDS011;26342;42.826;23.992;2022-12-05T18:24:58;7.85;;;4.78;;
40649;SDS011;26342;42.826;23.992;2022-12-05T18:27:25;6.38;;;3.83;;
40649;SDS011;26342;42.826;23.992;2022-12-05T18:29:51;4.10;;;3.70;;
40649;SDS011;26342;42.826;23.992;2022-12-05T18:32:17;4.95;;;3.08;;
40649;SDS011;26342;42.826;23.992;2022-12-05T18:34:42;4.95;;;3.40;;